sensor_id;sensor_type;location;lat;lon;timestamp;pressure;altitude;pressure_sealevel;temperature;humidity
35806;BME280;21925;44.608;11.580;2023-06-22T00:00:56;101819.53;;;27.81;82.65
35806;BME280;21925;44.608;11.580;2023-06-22T00:03:23;101814.53;;;27.88;81.09
35806;BME280;21925;44.608;11.580;2023-06-22T00:05:49;101810.91;;;27.88;81.74
35806;BME280;21925;44.608;11.580;2023-06-22T00:08:16;101815.59;;;27.94;82.34
35806;BME280;21925;44.608;11.580;2023-06-22T00:10:42;101811.09;;;27.97;79.66
35806;BME280;21925;44.608;11.580;2023-06-22T00:13:09;101803.00;;;27.99;79.04
35806;BME280;21925;44.608;11.580;2023-06-22T00:15:35;101801.22;;;27.89;79.73
35806;BME280;21925;44.608;11.580;2023-06-22T00:18:02;101807.03;;;27.82;79.58
35806;BME280;21925;44.608;11.580;2023-06-22T00:20:28;101822.06;;;27.40;84.36
35806;BME280;21925;44.608;11.580;2023-06-22T00:22:54;101830.16;;;27.38;85.16
35806;BME280;21925;44.608;11.580;2023-06-22T00:25:20;101827.41;;;27.54;84.23
35806;BME280;21925;44.608;11.580;2023-06-22T00:27:46;101827.31;;;27.57;83.31
35806;BME280;21925;44.608;11.580;2023-06-22T00:30:11;101834.50;;;27.58;83.20
35806;BME280;21925;44.608;11.580;2023-06-22T00:32:37;101834.41;;;27.46;85.41
35806;BME280;21925;44.608;11.580;2023-06-22T00:35:03;101806.50;;;27.51;84.75
35806;BME280;21925;44.608;11.580;2023-06-22T00:37:29;101793.28;;;27.68;83.34
35806;BME280;21925;44.608;11.580;2023-06-22T00:39:55;101809.84;;;27.82;83.77
35806;BME280;21925;44.608;11.580;2023-06-22T00:42:21;101805.63;;;27.90;82.21
35806;BME280;21925;44.608;11.580;2023-06-22T00:44:46;101809.94;;;27.78;84.67
35806;BME280;21925;44.608;11.580;2023-06-22T00:47:17;101811.97;;;27.94;81.79
35806;BME280;21925;44.608;11.580;2023-06-22T00:49:44;101809.31;;;27.87;83.77
35806;BME280;21925;44.608;11.580;2023-06-22T00:52:10;101801.22;;;27.89;84.29
35806;BME280;21925;44.608;11.580;2023-06-22T00:54:40;101801.75;;;27.84;85.61
35806;BME280;21925;44.608;11.580;2023-06-22T00:57:13;101791.50;;;27.74;87.15
35806;BME280;21925;44.608;11.580;2023-06-22T00:59:45;101795.38;;;27.80;83.72
35806;BME280;21925;44.608;11.580;2023-06-22T01:02:18;101787.63;;;27.68;84.83
35806;BME280;21925;44.608;11.580;2023-06-22T01:04:43;101782.50;;;27.63;85.66
35806;BME280;21925;44.608;11.580;2023-06-22T01:07:33;101767.50;;;27.50;86.75
35806;BME280;21925;44.608;11.580;2023-06-22T01:10:27;101765.47;;;27.50;86.74
35806;BME280;21925;44.608;11.580;2023-06-22T01:13:04;101769.69;;;27.42;88.47
35806;BME280;21925;44.608;11.580;2023-06-22T01:15:57;101776.56;;;27.42;86.35
35806;BME280;21925;44.608;11.580;2023-06-22T01:18:28;101776.47;;;27.45;88.70
35806;BME280;21925;44.608;11.580;2023-06-22T01:20:56;101777.94;;;27.14;92.04
35806;BME280;21925;44.608;11.580;2023-06-22T01:28:57;101781.72;;;27.27;89.25
35806;BME280;21925;44.608;11.580;2023-06-22T01:31:27;101790.94;;;27.28;89.26
35806;BME280;21925;44.608;11.580;2023-06-22T01:34:05;101786.31;;;26.98;93.59
35806;BME280;21925;44.608;11.580;2023-06-22T01:36:32;101782.66;;;27.01;91.84
35806;BME280;21925;44.608;11.580;2023-06-22T01:38:59;101785.69;;;27.10;89.84
35806;BME280;21925;44.608;11.580;2023-06-22T01:41:26;101781.66;;;27.11;90.57
35806;BME280;21925;44.608;11.580;2023-06-22T01:43:55;101775.13;;;27.14;88.90
35806;BME280;21925;44.608;11.580;2023-06-22T01:46:21;101772.22;;;26.60;93.26
35806;BME280;21925;44.608;11.580;2023-06-22T01:48:48;101776.22;;;25.67;100.00
35806;BME280;21925;44.608;11.580;2023-06-22T01:55:02;101775.69;;;26.25;98.54
35806;BME280;21925;44.608;11.580;2023-06-22T01:57:32;101786.44;;;25.84;100.00
35806;BME280;21925;44.608;11.580;2023-06-22T02:00:04;101793.47;;;25.39;100.00
35806;BME280;21925;44.608;11.580;2023-06-22T02:05:18;101777.50;;;25.33;100.00
35806;BME280;21925;44.608;11.580;2023-06-22T02:07:56;101786.88;;;25.53;100.00
35806;BME280;21925;44.608;11.580;2023-06-22T02:10:26;101782.03;;;25.53;100.00
35806;BME280;21925;44.608;11.580;2023-06-22T02:12:57;101784.03;;;25.82;100.00
35806;BME280;21925;44.608;11.580;2023-06-22T02:15:24;101785.09;;;26.15;100.00
35806;BME280;21925;44.608;11.580;2023-06-22T02:17:53;101785.72;;;26.49;99.25
35806;BME280;21925;44.608;11.580;2023-06-22T02:20:19;101798.00;;;26.77;95.02
35806;BME280;21925;44.608;11.580;2023-06-22T02:22:45;101798.91;;;26.52;98.92
35806;BME280;21925;44.608;11.580;2023-06-22T02:25:11;101804.34;;;26.16;100.00
35806;BME280;21925;44.608;11.580;2023-06-22T02:27:36;101801.09;;;26.18;100.00
35806;BME280;21925;44.608;11.580;2023-06-22T02:33:53;101791.44;;;26.64;92.29
35806;BME280;21925;44.608;11.580;2023-06-22T02:36:19;101797.16;;;26.61;95.76
35806;BME280;21925;44.608;11.580;2023-06-22T02:38:47;101810.78;;;26.63;95.27
35806;BME280;21925;44.608;11.580;2023-06-22T02:41:16;101804.91;;;26.54;96.24
35806;BME280;21925;44.608;11.580;2023-06-22T02:43:45;101804.06;;;26.57;93.85
35806;BME280;21925;44.608;11.580;2023-06-22T02:46:11;101810.78;;;26.63;93.02
35806;BME280;21925;44.608;11.580;2023-06-22T02:48:40;101821.00;;;26.53;97.08
35806;BME280;21925;44.608;11.580;2023-06-22T02:51:06;101827.91;;;26.49;96.29
35806;BME280;21925;44.608;11.580;2023-06-22T02:53:33;101835.41;;;26.55;95.30
35806;BME280;21925;44.608;11.580;2023-06-22T02:56:01;101825.31;;;26.58;94.56
35806;BME280;21925;44.608;11.580;2023-06-22T02:58:31;101824.66;;;26.50;95.34
35806;BME280;21925;44.608;11.580;2023-06-22T03:01:06;101821.03;;;26.27;98.61
35806;BME280;21925;44.608;11.580;2023-06-22T03:03:33;101818.34;;;26.43;95.08
35806;BME280;21925;44.608;11.580;2023-06-22T03:05:59;101825.38;;;26.08;100.00
35806;BME280;21925;44.608;11.580;2023-06-22T03:08:27;101827.53;;;25.97;100.00
35806;BME280;21925;44.608;11.580;2023-06-22T03:10:53;101828.13;;;26.12;99.43
35806;BME280;21925;44.608;11.580;2023-06-22T03:13:19;101817.47;;;26.00;100.00
35806;BME280;21925;44.608;11.580;2023-06-22T03:15:45;101831.75;;;25.86;100.00
35806;BME280;21925;44.608;11.580;2023-06-22T03:18:12;101834.81;;;25.95;100.00
35806;BME280;21925;44.608;11.580;2023-06-22T03:20:38;101836.25;;;25.80;100.00
35806;BME280;21925;44.608;11.580;2023-06-22T03:23:03;101830.53;;;25.57;100.00
35806;BME280;21925;44.608;11.580;2023-06-22T03:25:31;101854.81;;;25.44;100.00
35806;BME280;21925;44.608;11.580;2023-06-22T03:27:56;101855.53;;;25.78;100.00
35806;BME280;21925;44.608;11.580;2023-06-22T03:30:22;101846.59;;;25.86;100.00
35806;BME280;21925;44.608;11.580;2023-06-22T03:32:48;101849.38;;;25.60;100.00
35806;BME280;21925;44.608;11.580;2023-06-22T03:35:14;101854.13;;;25.63;100.00
35806;BME280;21925;44.608;11.580;2023-06-22T03:37:40;101861.75;;;25.92;100.00
35806;BME280;21925;44.608;11.580;2023-06-22T03:40:06;101853.56;;;25.45;100.00
35806;BME280;21925;44.608;11.580;2023-06-22T03:42:34;101848.31;;;25.77;100.00
35806;BME280;21925;44.608;11.580;2023-06-22T03:45:03;101855.00;;;25.60;100.00
35806;BME280;21925;44.608;11.580;2023-06-22T03:47:30;101841.16;;;25.76;100.00
35806;BME280;21925;44.608;11.580;2023-06-22T03:49:57;101842.63;;;25.84;100.00
35806;BME280;21925;44.608;11.580;2023-06-22T03:52:23;101843.59;;;25.71;100.00
35806;BME280;21925;44.608;11.580;2023-06-22T03:54:50;101856.81;;;25.44;100.00
35806;BME280;21925;44.608;11.580;2023-06-22T03:57:16;101852.66;;;24.85;100.00
35806;BME280;21925;44.608;11.580;2023-06-22T03:59:42;101855.91;;;24.84;100.00
35806;BME280;21925;44.608;11.580;2023-06-22T04:02:08;101853.91;;;25.21;100.00
35806;BME280;21925;44.608;11.580;2023-06-22T04:04:35;101857.53;;;25.51;100.00
35806;BME280;21925;44.608;11.580;2023-06-22T04:07:01;101859.91;;;25.53;100.00
35806;BME280;21925;44.608;11.580;2023-06-22T04:09:29;101849.38;;;25.60;100.00
35806;BME280;21925;44.608;11.580;2023-06-22T04:11:56;101844.38;;;25.71;100.00
35806;BME280;21925;44.608;11.580;2023-06-22T04:14:25;101858.00;;;25.76;100.00
35806;BME280;21925;44.608;11.580;2023-06-22T04:16:51;101847.72;;;25.63;100.00
35806;BME280;21925;44.608;11.580;2023-06-22T04:19:18;101851.91;;;25.51;100.00
35806;BME280;21925;44.608;11.580;2023-06-22T04:21:44;101854.13;;;25.63;100.00
35806;BME280;21925;44.608;11.580;2023-06-22T04:24:11;101865.72;;;25.95;100.00
35806;BME280;21925;44.608;11.580;2023-06-22T04:26:37;101854.84;;;25.97;100.00
35806;BME280;21925;44.608;11.580;2023-06-22T04:29:07;101857.69;;;25.97;100.00
35806;BME280;21925;44.608;11.580;2023-06-22T04:31:37;101852.72;;;25.78;100.00
35806;BME280;21925;44.608;11.580;2023-06-22T04:34:05;101855.69;;;25.94;100.00
35806;BME280;21925;44.608;11.580;2023-06-22T04:36:56;101858.38;;;25.75;100.00
35806;BME280;21925;44.608;11.580;2023-06-22T04:39:23;101845.66;;;25.37;100.00
35806;BME280;21925;44.608;11.580;2023-06-22T04:41:50;101831.16;;;25.72;100.00
35806;BME280;21925;44.608;11.580;2023-06-22T04:44:18;101838.44;;;25.95;100.00
35806;BME280;21925;44.608;11.580;2023-06-22T04:46:58;101850.31;;;26.29;100.00
35806;BME280;21925;44.608;11.580;2023-06-22T04:49:41;101858.50;;;26.20;100.00
35806;BME280;21925;44.608;11.580;2023-06-22T04:52:10;101865.84;;;26.37;100.00
35806;BME280;21925;44.608;11.580;2023-06-22T04:54:39;101859.66;;;26.00;100.00
35806;BME280;21925;44.608;11.580;2023-06-22T04:57:07;101855.53;;;26.31;100.00
35806;BME280;21925;44.608;11.580;2023-06-22T04:59:37;101849.63;;;26.48;100.00
35806;BME280;21925;44.608;11.580;2023-06-22T05:02:05;101856.75;;;26.53;100.00
35806;BME280;21925;44.608;11.580;2023-06-22T05:04:35;101856.16;;;26.64;100.00
35806;BME280;21925;44.608;11.580;2023-06-22T05:07:07;101851.19;;;26.72;99.22
35806;BME280;21925;44.608;11.580;2023-06-22T05:09:33;101854.97;;;26.62;100.00
35806;BME280;21925;44.608;11.580;2023-06-22T05:12:00;101852.00;;;26.50;100.00
35806;BME280;21925;44.608;11.580;2023-06-22T05:14:38;101858.47;;;26.69;99.90
35806;BME280;21925;44.608;11.580;2023-06-22T05:17:07;101870.09;;;26.71;100.00
35806;BME280;21925;44.608;11.580;2023-06-22T05:19:40;101868.59;;;26.86;96.48
35806;BME280;21925;44.608;11.580;2023-06-22T05:22:10;101864.78;;;26.96;95.35
35806;BME280;21925;44.608;11.580;2023-06-22T05:24:37;101858.97;;;27.07;96.16
35806;BME280;21925;44.608;11.580;2023-06-22T05:27:04;101850.97;;;27.25;96.69
35806;BME280;21925;44.608;11.580;2023-06-22T05:29:30;101859.28;;;27.32;95.59
35806;BME280;21925;44.608;11.580;2023-06-22T05:31:56;101866.22;;;27.27;94.36
35806;BME280;21925;44.608;11.580;2023-06-22T05:34:22;101846.72;;;27.36;94.01
35806;BME280;21925;44.608;11.580;2023-06-22T05:36:48;101857.28;;;27.48;93.62
35806;BME280;21925;44.608;11.580;2023-06-22T05:39:15;101851.13;;;27.37;93.37
35806;BME280;21925;44.608;11.580;2023-06-22T05:41:42;101854.13;;;27.46;93.78
35806;BME280;21925;44.608;11.580;2023-06-22T05:44:08;101870.72;;;27.60;94.23
35806;BME280;21925;44.608;11.580;2023-06-22T05:46:34;101856.88;;;27.69;94.82
35806;BME280;21925;44.608;11.580;2023-06-22T05:49:01;101853.53;;;27.74;92.26
35806;BME280;21925;44.608;11.580;2023-06-22T05:51:27;101855.03;;;27.78;94.75
35806;BME280;21925;44.608;11.580;2023-06-22T05:53:54;101847.66;;;28.00;92.79
35806;BME280;21925;44.608;11.580;2023-06-22T05:56:21;101843.69;;;28.14;91.95
35806;BME280;21925;44.608;11.580;2023-06-22T05:58:48;101842.03;;;28.32;90.58
35806;BME280;21925;44.608;11.580;2023-06-22T06:01:14;101837.88;;;28.52;90.22
35806;BME280;21925;44.608;11.580;2023-06-22T06:03:41;101838.91;;;28.74;89.43
35806;BME280;21925;44.608;11.580;2023-06-22T06:06:07;101852.09;;;28.49;89.84
35806;BME280;21925;44.608;11.580;2023-06-22T06:08:33;101851.25;;;28.96;88.56
35806;BME280;21925;44.608;11.580;2023-06-22T06:11:00;101852.81;;;29.25;86.56
35806;BME280;21925;44.608;11.580;2023-06-22T06:13:26;101849.78;;;29.32;85.69
35806;BME280;21925;44.608;11.580;2023-06-22T06:15:52;101850.47;;;29.36;85.33
35806;BME280;21925;44.608;11.580;2023-06-22T06:18:21;101851.78;;;29.85;83.78
35806;BME280;21925;44.608;11.580;2023-06-22T06:20:46;101847.94;;;29.79;81.63
35806;BME280;21925;44.608;11.580;2023-06-22T06:23:13;101847.19;;;30.16;80.88
35806;BME280;21925;44.608;11.580;2023-06-22T06:25:39;101859.59;;;30.31;79.78
35806;BME280;21925;44.608;11.580;2023-06-22T06:28:05;101848.41;;;30.27;80.52
35806;BME280;21925;44.608;11.580;2023-06-22T06:30:32;101846.00;;;30.38;78.68
35806;BME280;21925;44.608;11.580;2023-06-22T06:32:58;101851.13;;;30.18;77.79
35806;BME280;21925;44.608;11.580;2023-06-22T06:35:24;101842.91;;;30.58;77.58
35806;BME280;21925;44.608;11.580;2023-06-22T06:37:50;101848.41;;;30.27;76.48
35806;BME280;21925;44.608;11.580;2023-06-22T06:40:17;101848.72;;;30.29;77.75
35806;BME280;21925;44.608;11.580;2023-06-22T06:42:45;101853.56;;;30.41;78.43
35806;BME280;21925;44.608;11.580;2023-06-22T06:45:14;101855.97;;;30.30;78.86
35806;BME280;21925;44.608;11.580;2023-06-22T06:47:40;101847.91;;;30.41;77.37
35806;BME280;21925;44.608;11.580;2023-06-22T06:50:07;101854.34;;;30.54;77.80
35806;BME280;21925;44.608;11.580;2023-06-22T06:52:34;101850.53;;;30.48;76.66
35806;BME280;21925;44.608;11.580;2023-06-22T06:55:00;101852.69;;;30.78;76.18
35806;BME280;21925;44.608;11.580;2023-06-22T06:57:27;101848.78;;;30.97;75.35
35806;BME280;21925;44.608;11.580;2023-06-22T06:59:55;101858.91;;;30.85;74.91
35806;BME280;21925;44.608;11.580;2023-06-22T07:02:22;101852.47;;;30.85;74.88
35806;BME280;21925;44.608;11.580;2023-06-22T07:04:49;101853.38;;;30.82;75.36
35806;BME280;21925;44.608;11.580;2023-06-22T07:07:15;101860.06;;;30.76;76.14
35806;BME280;21925;44.608;11.580;2023-06-22T07:09:41;101848.44;;;30.95;77.33
35806;BME280;21925;44.608;11.580;2023-06-22T07:12:07;101854.97;;;30.83;75.83
35806;BME280;21925;44.608;11.580;2023-06-22T07:14:33;101852.53;;;30.94;75.03
35806;BME280;21925;44.608;11.580;2023-06-22T07:17:02;101850.97;;;31.14;72.17
35806;BME280;21925;44.608;11.580;2023-06-22T07:19:28;101842.59;;;31.11;70.23
35806;BME280;21925;44.608;11.580;2023-06-22T07:21:54;101851.84;;;31.45;69.09
35806;BME280;21925;44.608;11.580;2023-06-22T07:24:21;101849.97;;;31.51;69.06
35806;BME280;21925;44.608;11.580;2023-06-22T07:26:48;101851.44;;;31.13;69.31
35806;BME280;21925;44.608;11.580;2023-06-22T07:29:20;101842.47;;;31.36;68.51
35806;BME280;21925;44.608;11.580;2023-06-22T07:31:50;101835.31;;;31.53;69.13
35806;BME280;21925;44.608;11.580;2023-06-22T07:34:20;101840.66;;;31.20;69.02
35806;BME280;21925;44.608;11.580;2023-06-22T07:36:46;101829.13;;;31.15;69.89
35806;BME280;21925;44.608;11.580;2023-06-22T07:39:13;101819.22;;;31.71;68.44
35806;BME280;21925;44.608;11.580;2023-06-22T07:41:40;101822.97;;;31.98;68.41
35806;BME280;21925;44.608;11.580;2023-06-22T07:44:09;101830.16;;;31.81;66.81
35806;BME280;21925;44.608;11.580;2023-06-22T07:46:35;101823.34;;;31.49;67.90
35806;BME280;21925;44.608;11.580;2023-06-22T07:49:01;101827.91;;;31.76;66.59
35806;BME280;21925;44.608;11.580;2023-06-22T07:51:27;101819.28;;;32.28;65.83
35806;BME280;21925;44.608;11.580;2023-06-22T07:53:53;101822.59;;;32.27;65.25
35806;BME280;21925;44.608;11.580;2023-06-22T07:56:19;101819.66;;;32.57;65.43
35806;BME280;21925;44.608;11.580;2023-06-22T07:58:46;101818.56;;;33.26;63.74
35806;BME280;21925;44.608;11.580;2023-06-22T08:01:13;101817.72;;;32.27;63.36
35806;BME280;21925;44.608;11.580;2023-06-22T08:03:39;101813.84;;;32.69;64.37
35806;BME280;21925;44.608;11.580;2023-06-22T08:06:06;101812.41;;;32.92;63.56
35806;BME280;21925;44.608;11.580;2023-06-22T08:08:35;101821.75;;;32.65;63.86
35806;BME280;21925;44.608;11.580;2023-06-22T08:11:01;101812.09;;;33.17;63.80
35806;BME280;21925;44.608;11.580;2023-06-22T08:13:27;101823.91;;;33.33;63.50
35806;BME280;21925;44.608;11.580;2023-06-22T08:15:53;101818.53;;;33.35;62.73
35806;BME280;21925;44.608;11.580;2023-06-22T08:18:19;101822.94;;;33.45;61.41
35806;BME280;21925;44.608;11.580;2023-06-22T08:20:44;101821.78;;;34.02;61.62
35806;BME280;21925;44.608;11.580;2023-06-22T08:23:10;101827.06;;;34.73;59.92
35806;BME280;21925;44.608;11.580;2023-06-22T08:25:36;101812.00;;;34.49;60.05
35806;BME280;21925;44.608;11.580;2023-06-22T08:28:03;101818.88;;;34.66;58.72
35806;BME280;21925;44.608;11.580;2023-06-22T08:30:29;101811.91;;;34.67;57.76
35806;BME280;21925;44.608;11.580;2023-06-22T08:32:55;101799.28;;;34.97;57.60
35806;BME280;21925;44.608;11.580;2023-06-22T08:35:24;101807.22;;;34.79;58.12
35806;BME280;21925;44.608;11.580;2023-06-22T08:37:50;101802.72;;;34.87;56.58
35806;BME280;21925;44.608;11.580;2023-06-22T08:40:19;101819.59;;;35.13;58.00
35806;BME280;21925;44.608;11.580;2023-06-22T08:42:46;101815.41;;;35.00;57.06
35806;BME280;21925;44.608;11.580;2023-06-22T08:45:12;101802.75;;;35.01;56.85
35806;BME280;21925;44.608;11.580;2023-06-22T08:47:39;101808.31;;;36.31;56.74
35806;BME280;21925;44.608;11.580;2023-06-22T08:50:07;101800.31;;;36.94;56.42
35806;BME280;21925;44.608;11.580;2023-06-22T08:52:34;101807.06;;;37.42;54.88
35806;BME280;21925;44.608;11.580;2023-06-22T08:55:00;101806.31;;;36.76;53.11
35806;BME280;21925;44.608;11.580;2023-06-22T08:57:27;101802.31;;;36.09;54.96
35806;BME280;21925;44.608;11.580;2023-06-22T08:59:54;101805.75;;;36.33;53.81
35806;BME280;21925;44.608;11.580;2023-06-22T09:02:27;101810.22;;;35.85;55.23
35806;BME280;21925;44.608;11.580;2023-06-22T09:04:59;101794.38;;;35.98;55.27
35806;BME280;21925;44.608;11.580;2023-06-22T09:07:26;101798.03;;;36.78;53.97
35806;BME280;21925;44.608;11.580;2023-06-22T09:09:55;101801.34;;;36.91;53.43
35806;BME280;21925;44.608;11.580;2023-06-22T09:12:22;101791.28;;;37.83;53.08
35806;BME280;21925;44.608;11.580;2023-06-22T09:14:51;101789.56;;;38.43;52.38
35806;BME280;21925;44.608;11.580;2023-06-22T09:17:17;101793.66;;;38.95;51.60
35806;BME280;21925;44.608;11.580;2023-06-22T09:19:43;101781.00;;;37.35;50.84
35806;BME280;21925;44.608;11.580;2023-06-22T09:22:09;101782.81;;;37.68;51.23
35806;BME280;21925;44.608;11.580;2023-06-22T09:24:35;101784.72;;;38.66;51.43
35806;BME280;21925;44.608;11.580;2023-06-22T09:27:00;101792.16;;;39.05;51.78
35806;BME280;21925;44.608;11.580;2023-06-22T09:29:26;101789.50;;;37.91;50.11
35806;BME280;21925;44.608;11.580;2023-06-22T09:31:52;101784.91;;;38.51;49.69
35806;BME280;21925;44.608;11.580;2023-06-22T09:34:21;101789.88;;;37.73;51.13
35806;BME280;21925;44.608;11.580;2023-06-22T09:36:47;101772.06;;;38.36;50.88
35806;BME280;21925;44.608;11.580;2023-06-22T09:39:12;101776.44;;;38.21;51.32
35806;BME280;21925;44.608;11.580;2023-06-22T09:41:38;101771.09;;;37.66;49.28
35806;BME280;21925;44.608;11.580;2023-06-22T09:44:04;101778.91;;;38.02;49.37
35806;BME280;21925;44.608;11.580;2023-06-22T09:46:30;101772.38;;;38.43;49.50
35806;BME280;21925;44.608;11.580;2023-06-22T09:48:55;101762.16;;;39.06;48.48
35806;BME280;21925;44.608;11.580;2023-06-22T09:51:23;101760.50;;;38.72;47.95
35806;BME280;21925;44.608;11.580;2023-06-22T09:53:50;101760.88;;;39.73;48.73
35806;BME280;21925;44.608;11.580;2023-06-22T09:56:16;101766.81;;;40.07;48.52
35806;BME280;21925;44.608;11.580;2023-06-22T09:58:42;101752.63;;;40.31;46.88
35806;BME280;21925;44.608;11.580;2023-06-22T10:01:08;101751.41;;;40.73;47.91
35806;BME280;21925;44.608;11.580;2023-06-22T10:03:34;101755.25;;;40.86;47.50
35806;BME280;21925;44.608;11.580;2023-06-22T10:05:59;101750.16;;;39.90;45.74
35806;BME280;21925;44.608;11.580;2023-06-22T10:08:25;101753.94;;;40.87;47.83
35806;BME280;21925;44.608;11.580;2023-06-22T10:10:51;101755.28;;;41.21;46.80
35806;BME280;21925;44.608;11.580;2023-06-22T10:13:16;101760.31;;;40.75;44.34
35806;BME280;21925;44.608;11.580;2023-06-22T10:15:42;101755.22;;;41.61;44.49
35806;BME280;21925;44.608;11.580;2023-06-22T10:18:08;101748.00;;;41.73;42.83
35806;BME280;21925;44.608;11.580;2023-06-22T10:20:34;101746.53;;;42.14;42.65
35806;BME280;21925;44.608;11.580;2023-06-22T10:22:59;101745.88;;;41.50;39.41
35806;BME280;21925;44.608;11.580;2023-06-22T10:25:27;101747.47;;;42.22;42.14
35806;BME280;21925;44.608;11.580;2023-06-22T10:27:53;101747.94;;;42.26;42.48
35806;BME280;21925;44.608;11.580;2023-06-22T10:30:18;101743.59;;;42.20;38.25
35806;BME280;21925;44.608;11.580;2023-06-22T10:32:44;101744.31;;;42.44;42.67
35806;BME280;21925;44.608;11.580;2023-06-22T10:35:10;101740.03;;;42.87;40.75
35806;BME280;21925;44.608;11.580;2023-06-22T10:37:36;101744.00;;;43.03;41.63
35806;BME280;21925;44.608;11.580;2023-06-22T10:40:02;101737.03;;;43.30;42.71
35806;BME280;21925;44.608;11.580;2023-06-22T10:42:29;101738.00;;;43.63;41.93
35806;BME280;21925;44.608;11.580;2023-06-22T10:44:55;101740.44;;;43.72;41.41
35806;BME280;21925;44.608;11.580;2023-06-22T10:47:21;101735.47;;;43.29;38.28
35806;BME280;21925;44.608;11.580;2023-06-22T10:49:47;101738.00;;;43.63;40.56
35806;BME280;21925;44.608;11.580;2023-06-22T10:52:12;101736.22;;;42.61;38.02
35806;BME280;21925;44.608;11.580;2023-06-22T10:54:38;101742.53;;;42.96;39.27
35806;BME280;21925;44.608;11.580;2023-06-22T10:57:04;101737.63;;;43.10;38.34
35806;BME280;21925;44.608;11.580;2023-06-22T10:59:30;101732.88;;;43.56;38.15
35806;BME280;21925;44.608;11.580;2023-06-22T11:01:56;101735.28;;;43.97;36.86
35806;BME280;21925;44.608;11.580;2023-06-22T11:04:23;101738.47;;;44.45;39.12
35806;BME280;21925;44.608;11.580;2023-06-22T11:06:49;101729.38;;;44.28;40.15
35806;BME280;21925;44.608;11.580;2023-06-22T11:09:15;101727.75;;;44.53;38.71
35806;BME280;21925;44.608;11.580;2023-06-22T11:11:46;101723.88;;;44.50;38.80
35806;BME280;21925;44.608;11.580;2023-06-22T11:14:12;101722.91;;;44.35;37.55
35806;BME280;21925;44.608;11.580;2023-06-22T11:16:38;101730.66;;;44.66;39.35
35806;BME280;21925;44.608;11.580;2023-06-22T11:19:05;101723.91;;;44.84;36.94
35806;BME280;21925;44.608;11.580;2023-06-22T11:21:31;101716.75;;;44.98;37.86
35806;BME280;21925;44.608;11.580;2023-06-22T11:23:58;101708.34;;;44.15;34.59
35806;BME280;21925;44.608;11.580;2023-06-22T11:26:25;101706.16;;;44.54;35.96
35806;BME280;21925;44.608;11.580;2023-06-22T11:28:53;101696.38;;;44.90;36.92
35806;BME280;21925;44.608;11.580;2023-06-22T11:31:19;101693.84;;;44.53;35.16
35806;BME280;21925;44.608;11.580;2023-06-22T11:33:44;101689.69;;;44.62;35.90
35806;BME280;21925;44.608;11.580;2023-06-22T11:36:11;101679.38;;;45.27;36.45
35806;BME280;21925;44.608;11.580;2023-06-22T11:38:37;101676.78;;;45.65;37.17
35806;BME280;21925;44.608;11.580;2023-06-22T11:41:08;101675.16;;;45.56;38.33
35806;BME280;21925;44.608;11.580;2023-06-22T11:43:35;101667.38;;;45.23;37.80
35806;BME280;21925;44.608;11.580;2023-06-22T11:46:02;101676.22;;;45.94;36.85
35806;BME280;21925;44.608;11.580;2023-06-22T11:48:29;101674.59;;;46.13;37.38
35806;BME280;21925;44.608;11.580;2023-06-22T11:50:54;101660.56;;;45.69;38.05
35806;BME280;21925;44.608;11.580;2023-06-22T11:53:25;101662.81;;;45.84;37.06
35806;BME280;21925;44.608;11.580;2023-06-22T11:55:51;101664.94;;;46.18;37.81
35806;BME280;21925;44.608;11.580;2023-06-22T11:58:18;101655.63;;;46.70;36.80
35806;BME280;21925;44.608;11.580;2023-06-22T12:00:43;101656.28;;;46.26;36.24
35806;BME280;21925;44.608;11.580;2023-06-22T12:03:10;101646.16;;;45.28;34.44
35806;BME280;21925;44.608;11.580;2023-06-22T12:05:36;101643.44;;;45.03;34.37
35806;BME280;21925;44.608;11.580;2023-06-22T12:08:05;101630.38;;;45.93;36.98
35806;BME280;21925;44.608;11.580;2023-06-22T12:10:30;101627.72;;;45.39;36.64
35806;BME280;21925;44.608;11.580;2023-06-22T12:12:56;101615.06;;;45.85;37.79
35806;BME280;21925;44.608;11.580;2023-06-22T12:15:26;101616.81;;;45.88;39.22
35806;BME280;21925;44.608;11.580;2023-06-22T12:17:52;101607.81;;;46.06;37.25
35806;BME280;21925;44.608;11.580;2023-06-22T12:20:17;101597.97;;;46.67;36.69
35806;BME280;21925;44.608;11.580;2023-06-22T12:22:44;101603.19;;;46.61;37.74
35806;BME280;21925;44.608;11.580;2023-06-22T12:25:10;101583.41;;;45.94;34.49
35806;BME280;21925;44.608;11.580;2023-06-22T12:27:37;101580.47;;;45.79;35.90
35806;BME280;21925;44.608;11.580;2023-06-22T12:30:03;101569.19;;;46.18;36.81
35806;BME280;21925;44.608;11.580;2023-06-22T12:32:29;101574.50;;;45.92;36.57
35806;BME280;21925;44.608;11.580;2023-06-22T12:34:56;101567.22;;;46.06;37.57
35806;BME280;21925;44.608;11.580;2023-06-22T12:37:22;101548.41;;;46.50;37.68
35806;BME280;21925;44.608;11.580;2023-06-22T12:39:52;101558.31;;;46.04;36.29
35806;BME280;21925;44.608;11.580;2023-06-22T12:42:18;101553.69;;;46.08;35.92
35806;BME280;21925;44.608;11.580;2023-06-22T12:44:44;101546.31;;;46.00;37.17
35806;BME280;21925;44.608;11.580;2023-06-22T12:47:10;101539.06;;;46.36;36.86
35806;BME280;21925;44.608;11.580;2023-06-22T12:49:36;101545.84;;;45.74;35.69
35806;BME280;21925;44.608;11.580;2023-06-22T12:52:08;101539.34;;;45.25;36.24
35806;BME280;21925;44.608;11.580;2023-06-22T12:54:34;101549.34;;;46.37;38.20